createdAt,value
2018-05-02T00:02:15.321Z,3.07
2018-05-02T00:04:41.725Z,4.70
2018-05-02T00:07:09.553Z,2.90
2018-05-02T00:09:36.026Z,2.77
2018-05-02T00:12:02.417Z,5.07
2018-05-02T00:14:28.787Z,5.53
2018-05-02T00:16:55.147Z,3.90
2018-05-02T00:19:21.542Z,2.80
2018-05-02T00:21:48.632Z,2.53
2018-05-02T00:24:15.015Z,2.80
2018-05-02T00:26:41.350Z,3.10
2018-05-02T00:29:07.771Z,3.23
2018-05-02T00:31:34.103Z,6.20
2018-05-02T00:34:00.615Z,3.23
2018-05-02T00:36:26.957Z,2.67
2018-05-02T00:38:54.240Z,2.70
2018-05-02T00:41:21.345Z,2.60
2018-05-02T00:43:47.678Z,3.17
2018-05-02T00:46:13.999Z,2.73
2018-05-02T00:48:52.531Z,2.90
2018-05-02T00:51:19.129Z,4.70
2018-05-02T00:53:45.523Z,4.63
2018-05-02T00:56:11.919Z,3.07
2018-05-02T00:58:38.327Z,2.80
2018-05-02T01:01:04.743Z,2.47
2018-05-02T01:03:31.901Z,2.87
2018-05-02T01:05:59.098Z,2.80
2018-05-02T01:08:25.517Z,2.70
2018-05-02T01:10:51.945Z,2.97
2018-05-02T01:13:19.092Z,3.00
2018-05-02T01:15:45.525Z,3.20
2018-05-02T01:18:12.106Z,3.20
2018-05-02T01:20:39.216Z,4.20
2018-05-02T01:23:05.741Z,3.97
2018-05-02T01:25:32.171Z,4.23
2018-05-02T01:27:58.592Z,3.93
2018-05-02T01:30:24.954Z,2.90
2018-05-02T01:32:52.119Z,2.47
2018-05-02T01:35:18.534Z,2.83
2018-05-02T01:37:45.029Z,2.47
2018-05-02T01:40:11.433Z,2.60
2018-05-02T01:42:38.632Z,2.80
2018-05-02T01:45:05.142Z,2.90
2018-05-02T01:47:31.539Z,2.73
2018-05-02T01:49:57.898Z,2.70
2018-05-02T01:52:24.336Z,2.90
2018-05-02T01:54:50.723Z,2.80
2018-05-02T01:57:17.823Z,2.83
2018-05-02T01:59:44.159Z,2.73
2018-05-02T02:02:10.610Z,2.90
2018-05-02T02:04:37.749Z,2.83
2018-05-02T02:07:04.138Z,3.80
2018-05-02T02:09:30.534Z,3.80
2018-05-02T02:11:57.659Z,3.20
2018-05-02T02:14:24.072Z,3.13
2018-05-02T02:16:50.392Z,2.60
2018-05-02T02:19:17.551Z,3.90
2018-05-02T02:21:44.649Z,3.73
2018-05-02T02:24:11.044Z,3.53
2018-05-02T02:26:38.567Z,2.60
2018-05-02T02:29:04.938Z,2.57
2018-05-02T02:31:31.267Z,2.93
2018-05-02T02:33:57.678Z,3.03
2018-05-02T02:36:24.822Z,2.63
2018-05-02T02:38:51.936Z,2.57
2018-05-02T02:41:18.328Z,2.63
2018-05-02T02:43:45.454Z,2.57
2018-05-02T02:46:11.951Z,2.80
2018-05-02T02:48:38.629Z,2.97
2018-05-02T02:51:05.031Z,2.60
2018-05-02T02:53:32.197Z,2.37
2018-05-02T02:55:59.989Z,2.57
2018-05-02T02:58:26.394Z,2.80
2018-05-02T03:00:52.806Z,2.90
2018-05-02T03:03:19.206Z,3.10
2018-05-02T03:05:45.599Z,2.70
2018-05-02T03:08:11.956Z,2.67
2018-05-02T03:10:38.861Z,3.03
2018-05-02T03:13:05.946Z,2.83
2018-05-02T03:15:32.374Z,2.70
2018-05-02T03:17:58.745Z,2.90
2018-05-02T03:20:25.084Z,2.80
2018-05-02T03:22:51.488Z,2.67
2018-05-02T03:25:18.671Z,2.80
2018-05-02T03:27:45.057Z,3.10
2018-05-02T03:30:11.516Z,4.67
2018-05-02T03:32:37.903Z,28.07
2018-05-02T03:35:04.309Z,32.37
2018-05-02T03:37:30.785Z,27.63
2018-05-02T03:39:57.960Z,11.40
2018-05-02T03:42:24.332Z,6.03
2018-05-02T03:44:50.707Z,3.83
2018-05-02T03:47:17.081Z,4.30
2018-05-02T03:49:43.445Z,3.13
2018-05-02T03:52:09.875Z,9.67
2018-05-02T03:54:36.281Z,3.40
2018-05-02T03:57:02.674Z,4.57
2018-05-02T03:59:41.422Z,3.87
2018-05-02T04:02:20.097Z,3.50
2018-05-02T04:04:58.827Z,3.33
2018-05-02T04:07:25.220Z,3.40
2018-05-02T04:09:51.618Z,3.10
2018-05-02T04:12:18.056Z,3.30
2018-05-02T04:14:44.503Z,3.20
2018-05-02T04:17:10.941Z,3.60
2018-05-02T04:19:37.353Z,3.50
2018-05-02T04:22:03.724Z,2.90
2018-05-02T04:24:30.115Z,3.20
2018-05-02T04:26:56.495Z,3.03
2018-05-02T04:29:22.892Z,3.43
2018-05-02T04:31:49.262Z,3.50
2018-05-02T04:34:15.660Z,3.70
2018-05-02T04:36:42.027Z,4.00
2018-05-02T04:39:09.146Z,4.00
2018-05-02T04:41:35.530Z,4.33
2018-05-02T04:44:02.673Z,4.70
2018-05-02T04:46:29.076Z,10.00
2018-05-02T04:48:55.456Z,7.60
2018-05-02T04:51:21.959Z,6.20
2018-05-02T04:53:48.484Z,3.70
2018-05-02T04:56:14.898Z,3.30
2018-05-02T04:58:41.383Z,3.23
2018-05-02T05:01:08.496Z,3.50
2018-05-02T05:03:34.865Z,3.77
2018-05-02T05:06:01.262Z,3.27
2018-05-02T05:08:27.678Z,3.70
2018-05-02T05:10:54.085Z,3.43
2018-05-02T05:13:20.523Z,3.63
2018-05-02T05:15:46.918Z,4.20
2018-05-02T05:18:13.407Z,4.60
2018-05-02T05:20:39.814Z,4.10
2018-05-02T05:23:06.180Z,3.30
2018-05-02T05:25:32.588Z,4.10
2018-05-02T05:27:59.691Z,3.93
2018-05-02T05:30:26.104Z,3.53
2018-05-02T05:32:52.720Z,3.97
2018-05-02T05:35:19.227Z,4.00
2018-05-02T05:37:45.628Z,3.87
2018-05-02T05:40:12.758Z,3.33
2018-05-02T05:42:39.213Z,4.00
2018-05-02T05:45:06.353Z,4.30
2018-05-02T05:47:32.716Z,4.50
2018-05-02T05:49:59.072Z,3.23
2018-05-02T05:52:25.436Z,3.33
2018-05-02T05:54:51.970Z,3.40
2018-05-02T05:57:18.400Z,3.90
2018-05-02T05:59:45.565Z,3.63
2018-05-02T06:02:11.946Z,4.00
2018-05-02T06:04:38.659Z,3.90
2018-05-02T06:07:05.021Z,3.97
2018-05-02T06:09:32.207Z,3.87
2018-05-02T06:11:58.743Z,4.00
2018-05-02T06:14:25.877Z,3.87
2018-05-02T06:16:52.258Z,3.83
2018-05-02T06:19:18.679Z,4.10
2018-05-02T06:21:45.056Z,4.07
2018-05-02T06:24:11.424Z,3.60
2018-05-02T06:26:37.881Z,3.80
2018-05-02T06:29:04.297Z,4.03
2018-05-02T06:31:30.700Z,3.97
2018-05-02T06:33:57.195Z,4.20
2018-05-02T06:36:23.649Z,4.30
2018-05-02T06:38:50.144Z,4.23
2018-05-02T06:41:17.324Z,4.00
2018-05-02T06:43:43.677Z,4.57
2018-05-02T06:46:10.228Z,4.50
2018-05-02T06:48:36.628Z,4.20
2018-05-02T06:51:03.105Z,4.00
2018-05-02T06:53:30.241Z,3.80
2018-05-02T06:55:56.718Z,4.93
2018-05-02T06:58:23.111Z,4.17
2018-05-02T07:00:49.505Z,3.93
2018-05-02T07:03:16.652Z,4.00
2018-05-02T07:05:43.776Z,5.00
2018-05-02T07:08:10.125Z,4.10
2018-05-02T07:10:36.538Z,4.37
2018-05-02T07:13:02.921Z,4.00
2018-05-02T07:15:30.869Z,4.43
2018-05-02T07:17:57.279Z,4.17
2018-05-02T07:20:24.430Z,4.10
2018-05-02T07:22:50.990Z,4.60
2018-05-02T07:25:17.448Z,4.27
2018-05-02T07:27:44.538Z,4.40
2018-05-02T07:30:10.883Z,4.27
2018-05-02T07:32:37.447Z,4.40
2018-05-02T07:35:03.991Z,4.73
2018-05-02T07:37:30.335Z,4.60
2018-05-02T07:39:56.841Z,4.90
2018-05-02T07:42:23.244Z,9.13
2018-05-02T07:44:49.631Z,11.83
2018-05-02T07:47:15.987Z,16.40
2018-05-02T07:49:42.391Z,15.60
2018-05-02T07:52:09.553Z,17.63
2018-05-02T07:54:35.882Z,17.43
2018-05-02T07:57:02.346Z,11.70
2018-05-02T07:59:29.527Z,9.10
2018-05-02T08:01:55.911Z,6.27
2018-05-02T08:04:22.350Z,7.93
2018-05-02T08:06:48.724Z,4.53
2018-05-02T08:09:15.113Z,3.80
2018-05-02T08:11:41.620Z,3.90
2018-05-02T08:14:08.754Z,6.37
2018-05-02T08:16:35.261Z,5.10
2018-05-02T08:19:01.627Z,3.37
2018-05-02T08:21:28.084Z,2.80
2018-05-02T08:23:54.472Z,3.30
2018-05-02T08:26:20.861Z,3.00
2018-05-02T08:28:47.310Z,3.00
2018-05-02T08:31:13.723Z,2.90
2018-05-02T08:33:40.126Z,2.80
2018-05-02T08:36:06.547Z,2.67
2018-05-02T08:38:32.971Z,2.40
2018-05-02T08:41:00.189Z,2.63
2018-05-02T08:43:26.560Z,2.73
2018-05-02T08:45:53.673Z,2.70
2018-05-02T08:48:20.165Z,3.00
2018-05-02T08:50:47.281Z,2.70
2018-05-02T08:53:13.648Z,2.80
2018-05-02T08:55:40.079Z,2.77
2018-05-02T08:58:06.510Z,3.77
2018-05-02T09:00:32.845Z,2.47
2018-05-02T09:02:59.259Z,2.50
2018-05-02T09:05:26.436Z,2.70
2018-05-02T09:07:52.821Z,3.10
2018-05-02T09:10:19.420Z,2.60
2018-05-02T09:12:45.831Z,2.40
2018-05-02T09:15:12.266Z,2.43
2018-05-02T09:17:38.669Z,2.73
2018-05-02T09:20:05.157Z,2.97
2018-05-02T09:22:31.539Z,2.93
2018-05-02T09:24:58.021Z,2.50
2018-05-02T09:27:24.494Z,17.53
2018-05-02T09:29:50.945Z,2.80
2018-05-02T09:32:17.325Z,20.00
2018-05-02T09:34:44.544Z,2.97
2018-05-02T09:37:11.750Z,3.20
2018-05-02T09:39:38.886Z,13.53
2018-05-02T09:42:05.276Z,4.03
2018-05-02T09:44:31.692Z,19.63
2018-05-02T09:46:58.100Z,16.20
2018-05-02T09:49:24.497Z,20.27
2018-05-02T09:51:50.879Z,3.53
2018-05-02T09:54:18.078Z,13.23
2018-05-02T09:56:45.283Z,3.07
2018-05-02T09:59:11.689Z,3.17
2018-05-02T10:01:38.069Z,3.30
2018-05-02T10:04:04.421Z,3.20
2018-05-02T10:06:30.790Z,16.07
2018-05-02T10:08:57.250Z,24.43
2018-05-02T10:11:23.664Z,3.30
2018-05-02T10:13:50.161Z,3.30
2018-05-02T10:16:16.577Z,3.07
2018-05-02T10:18:42.972Z,2.90
2018-05-02T10:21:09.480Z,2.90
2018-05-02T10:23:36.615Z,23.30
2018-05-02T10:26:03.095Z,16.47
2018-05-02T10:28:29.495Z,4.27
2018-05-02T10:30:55.946Z,23.73
2018-05-02T10:33:22.343Z,19.10
2018-05-02T10:35:49.499Z,3.40
2018-05-02T10:38:15.955Z,3.13
2018-05-02T10:40:43.131Z,7.77
2018-05-02T10:43:10.295Z,3.03
2018-05-02T10:45:36.716Z,3.67
2018-05-02T10:48:03.148Z,4.47
2018-05-02T10:50:29.568Z,4.07
2018-05-02T10:52:55.948Z,2.93
2018-05-02T10:55:23.273Z,4.67
2018-05-02T10:57:49.777Z,3.20
2018-05-02T11:00:16.954Z,4.07
2018-05-02T11:02:43.297Z,5.33
2018-05-02T11:05:09.744Z,7.13
2018-05-02T11:07:36.837Z,4.00
2018-05-02T11:10:03.701Z,2.80
2018-05-02T11:12:30.133Z,3.40
2018-05-02T11:14:56.537Z,3.70
2018-05-02T11:17:23.760Z,3.90
2018-05-02T11:19:50.141Z,2.93
2018-05-02T11:22:17.304Z,3.50
2018-05-02T11:24:44.413Z,4.93
2018-05-02T11:27:10.891Z,9.57
2018-05-02T11:29:37.265Z,3.37
2018-05-02T11:32:04.515Z,3.10
2018-05-02T11:34:31.665Z,3.60
2018-05-02T11:36:58.049Z,3.00
2018-05-02T11:39:24.631Z,2.63
2018-05-02T11:41:51.109Z,4.00
2018-05-02T11:44:17.524Z,2.80
2018-05-02T11:46:43.894Z,4.83
2018-05-02T11:49:10.462Z,3.07
2018-05-02T11:51:37.590Z,4.00
2018-05-02T11:54:03.988Z,3.60
2018-05-02T11:56:30.381Z,3.43
2018-05-02T11:58:56.856Z,4.40
2018-05-02T12:01:23.285Z,8.53
2018-05-02T12:03:49.694Z,7.43
2018-05-02T12:06:16.047Z,14.70
2018-05-02T12:08:43.228Z,17.50
2018-05-02T12:11:09.680Z,3.07
2018-05-02T12:13:36.051Z,11.40
2018-05-02T12:16:03.316Z,13.50
2018-05-02T12:18:29.765Z,3.27
2018-05-02T12:20:56.870Z,4.03
2018-05-02T12:23:23.271Z,3.13
2018-05-02T12:25:49.697Z,6.50
2018-05-02T12:28:17.116Z,13.10
2018-05-02T12:30:43.968Z,12.93
2018-05-02T12:33:10.761Z,14.43
2018-05-02T12:35:37.152Z,12.97
2018-05-02T12:38:03.753Z,3.50
2018-05-02T12:40:30.203Z,3.60
2018-05-02T12:42:56.663Z,3.47
2018-05-02T12:45:23.869Z,5.20
2018-05-02T12:47:50.252Z,4.00
2018-05-02T12:50:16.735Z,3.30
2018-05-02T12:52:43.102Z,3.87
2018-05-02T12:55:09.515Z,13.37
2018-05-02T12:57:35.941Z,3.47
2018-05-02T13:00:02.648Z,13.67
2018-05-02T13:02:29.225Z,3.63
2018-05-02T13:04:56.391Z,4.53
2018-05-02T13:07:22.749Z,6.93
2018-05-02T13:09:49.877Z,18.10
2018-05-02T13:12:16.292Z,4.40
2018-05-02T13:14:42.690Z,3.77
2018-05-02T13:17:09.106Z,25.83
2018-05-02T13:19:35.581Z,26.97
2018-05-02T13:22:02.032Z,4.30
2018-05-02T13:24:28.455Z,6.90
2018-05-02T13:26:54.801Z,5.70
2018-05-02T13:29:21.177Z,7.13
2018-05-02T13:31:47.581Z,4.70
2018-05-02T13:34:14.019Z,13.47
2018-05-02T13:36:40.428Z,5.43
2018-05-02T13:39:06.895Z,5.60
2018-05-02T13:41:33.262Z,10.63
2018-05-02T13:43:59.701Z,17.10
2018-05-02T13:46:26.103Z,5.83
2018-05-02T13:48:53.270Z,4.80
2018-05-02T13:51:19.663Z,8.43
2018-05-02T13:53:46.663Z,5.33
2018-05-02T13:56:13.775Z,5.33
2018-05-02T13:58:40.918Z,4.50
2018-05-02T14:01:07.391Z,9.77
2018-05-02T14:03:33.807Z,12.97
2018-05-02T14:06:00.218Z,6.43
2018-05-02T14:08:26.612Z,5.30
2018-05-02T14:10:53.025Z,4.27
2018-05-02T14:13:19.398Z,8.33
2018-05-02T14:15:45.793Z,8.17
2018-05-02T14:18:12.147Z,6.90
2018-05-02T14:20:39.312Z,5.10
2018-05-02T14:23:06.420Z,5.90
2018-05-02T14:25:33.390Z,7.60
2018-05-02T14:28:00.554Z,5.20
2018-05-02T14:30:26.981Z,4.83
2018-05-02T14:32:53.394Z,5.90
2018-05-02T14:35:19.880Z,6.60
2018-05-02T14:37:46.350Z,4.40
2018-05-02T14:40:12.736Z,4.10
2018-05-02T14:42:39.136Z,5.63
2018-05-02T14:45:05.923Z,13.13
2018-05-02T14:47:33.052Z,6.03
2018-05-02T14:49:59.486Z,5.10
2018-05-02T14:52:25.888Z,7.13
2018-05-02T14:54:52.272Z,5.10
2018-05-02T14:57:18.647Z,5.63
2018-05-02T14:59:45.834Z,4.40
2018-05-02T15:02:12.276Z,5.00
2018-05-02T15:04:38.639Z,5.90
2018-05-02T15:07:05.085Z,6.13
2018-05-02T15:09:31.505Z,4.80
2018-05-02T15:11:57.869Z,5.03
2018-05-02T15:14:24.208Z,7.43
2018-05-02T15:16:50.630Z,6.50
2018-05-02T15:19:16.990Z,4.20
2018-05-02T15:21:43.549Z,5.67
2018-05-02T15:24:09.869Z,5.20
2018-05-02T15:26:36.998Z,5.30
2018-05-02T15:29:03.278Z,5.90
2018-05-02T15:31:29.539Z,6.03
2018-05-02T15:33:55.780Z,7.77
2018-05-02T15:36:22.006Z,6.57
2018-05-02T15:38:48.211Z,5.70
2018-05-02T15:41:15.183Z,7.47
2018-05-02T15:43:42.523Z,5.47
2018-05-02T15:46:08.815Z,6.83
2018-05-02T15:48:35.089Z,6.30
2018-05-02T15:51:01.344Z,5.63
2018-05-02T15:53:27.655Z,6.70
2018-05-02T15:55:53.970Z,6.50
2018-05-02T15:58:20.852Z,15.63
2018-05-02T16:00:48.486Z,6.33
2018-05-02T16:03:15.537Z,6.77
2018-05-02T16:05:42.006Z,6.03
2018-05-02T16:08:09.030Z,7.00
2018-05-02T16:10:37.510Z,6.43
2018-05-02T16:13:09.631Z,6.30
2018-05-02T16:15:44.591Z,6.57
2018-05-02T16:18:10.922Z,6.80
2018-05-02T16:20:37.303Z,8.63
2018-05-02T16:23:03.702Z,7.03
2018-05-02T16:25:30.804Z,5.40
2018-05-02T16:27:57.288Z,5.50
2018-05-02T16:30:23.538Z,8.00
2018-05-02T16:32:50.696Z,6.43
2018-05-02T16:35:17.049Z,6.20
2018-05-02T16:37:44.204Z,6.23
2018-05-02T16:40:10.550Z,7.07
2018-05-02T16:42:36.895Z,6.27
2018-05-02T16:45:04.056Z,6.50
2018-05-02T16:47:30.284Z,6.87
2018-05-02T16:49:56.669Z,7.17
2018-05-02T16:52:23.027Z,5.47
2018-05-02T16:54:49.720Z,6.80
2018-05-02T16:57:16.041Z,9.50
2018-05-02T16:59:42.433Z,9.13
2018-05-02T17:02:09.482Z,7.50
2018-05-02T17:04:36.059Z,10.00
2018-05-02T17:07:02.246Z,8.27
2018-05-02T17:09:28.628Z,7.53
2018-05-02T17:11:55.740Z,8.43
2018-05-02T17:14:22.138Z,6.90
2018-05-02T17:16:49.379Z,8.43
2018-05-02T17:19:15.730Z,7.57
2018-05-02T17:21:42.060Z,8.03
2018-05-02T17:24:08.451Z,5.93
2018-05-02T17:26:34.866Z,6.00
2018-05-02T17:29:01.191Z,6.67
2018-05-02T17:31:27.590Z,5.93
2018-05-02T17:33:53.957Z,6.37
2018-05-02T17:36:20.313Z,6.53
2018-05-02T17:38:46.679Z,6.73
2018-05-02T17:41:12.996Z,7.30
2018-05-02T17:43:39.368Z,7.00
2018-05-02T17:46:05.699Z,7.30
2018-05-02T17:48:32.004Z,7.67
2018-05-02T17:50:58.386Z,6.27
2018-05-02T17:53:24.834Z,7.80
2018-05-02T17:55:51.149Z,7.07
2018-05-02T17:58:18.334Z,6.43
2018-05-02T18:00:44.802Z,6.87
2018-05-02T18:03:11.134Z,7.33
2018-05-02T18:05:37.695Z,7.33
2018-05-02T18:08:03.978Z,7.43
2018-05-02T18:10:30.367Z,6.87
2018-05-02T18:12:56.754Z,7.13
2018-05-02T18:15:23.125Z,6.77
2018-05-02T18:17:49.613Z,7.27
2018-05-02T18:20:16.695Z,5.90
2018-05-02T18:22:43.821Z,6.70
2018-05-02T18:25:10.191Z,6.37
2018-05-02T18:27:37.278Z,6.90
2018-05-02T18:30:03.694Z,6.50
2018-05-02T18:32:30.742Z,6.37
2018-05-02T18:34:57.065Z,6.90
2018-05-02T18:37:23.502Z,6.60
2018-05-02T18:39:50.065Z,6.47
2018-05-02T18:42:16.381Z,6.47
2018-05-02T18:44:42.700Z,6.57
2018-05-02T18:47:10.597Z,6.63
2018-05-02T18:49:36.957Z,7.13
2018-05-02T18:52:03.332Z,7.23
2018-05-02T18:54:29.675Z,6.23
2018-05-02T18:56:56.075Z,7.23
2018-05-02T18:59:22.459Z,6.80
2018-05-02T19:01:48.874Z,5.93
2018-05-02T19:04:15.838Z,5.67
2018-05-02T19:06:42.197Z,6.70
2018-05-02T19:09:08.618Z,5.77
2018-05-02T19:11:34.936Z,6.37
2018-05-02T19:14:01.329Z,6.60
2018-05-02T19:16:27.711Z,6.17
2018-05-02T19:19:00.152Z,5.73
2018-05-02T19:21:26.516Z,6.07
2018-05-02T19:23:52.968Z,5.70
2018-05-02T19:26:29.306Z,6.30
2018-05-02T19:28:55.692Z,6.17
2018-05-02T19:31:28.156Z,5.93
2018-05-02T19:33:54.535Z,6.00
2018-05-02T19:36:21.657Z,7.40
2018-05-02T19:38:48.004Z,6.80
2018-05-02T19:41:20.432Z,6.00
2018-05-02T19:43:53.678Z,5.80
2018-05-02T19:46:20.089Z,6.53
2018-05-02T19:48:46.526Z,5.67
2018-05-02T19:51:19.918Z,5.70
2018-05-02T19:53:50.849Z,6.37
2018-05-02T19:56:17.277Z,5.63
2018-05-02T19:58:43.632Z,5.93
2018-05-02T20:01:16.192Z,5.97
2018-05-02T20:03:43.289Z,5.23
2018-05-02T20:06:09.682Z,6.60
2018-05-02T20:08:42.010Z,5.90
2018-05-02T20:11:14.401Z,5.60
2018-05-02T20:13:46.915Z,5.87
2018-05-02T20:16:14.053Z,5.60
2018-05-02T20:18:40.362Z,5.70
2018-05-02T20:21:06.730Z,5.63
2018-05-02T20:23:33.057Z,5.80
2018-05-02T20:25:59.448Z,6.63
2018-05-02T20:28:25.821Z,5.93
2018-05-02T20:30:53.108Z,6.80
2018-05-02T20:33:24.708Z,6.07
2018-05-02T20:35:51.131Z,6.00
2018-05-02T20:38:17.471Z,7.60
2018-05-02T20:40:43.832Z,10.17
2018-05-02T20:43:10.132Z,6.30
2018-05-02T20:45:37.155Z,6.27
2018-05-02T20:48:03.579Z,6.20
2018-05-02T20:50:31.040Z,6.57
2018-05-02T20:52:59.379Z,7.43
2018-05-02T20:55:25.750Z,6.20
2018-05-02T20:57:52.844Z,7.17
2018-05-02T21:00:34.056Z,7.17
2018-05-02T21:03:00.342Z,7.23
2018-05-02T21:05:27.433Z,8.67
2018-05-02T21:07:53.801Z,6.67
2018-05-02T21:10:22.316Z,6.77
2018-05-02T21:12:48.601Z,8.53
2018-05-02T21:15:14.961Z,7.20
2018-05-02T21:17:41.298Z,7.13
2018-05-02T21:20:07.721Z,7.40
2018-05-02T21:22:34.139Z,7.13
2018-05-02T21:25:06.690Z,7.20
2018-05-02T21:27:33.016Z,8.00
2018-05-02T21:29:59.539Z,7.10
2018-05-02T21:32:34.930Z,6.53
2018-05-02T21:35:01.268Z,6.87
2018-05-02T21:37:27.671Z,6.97
2018-05-02T21:39:54.025Z,7.30
2018-05-02T21:42:21.135Z,7.60
2018-05-02T21:44:53.441Z,6.90
2018-05-02T21:47:19.873Z,7.73
2018-05-02T21:49:46.210Z,8.20
2018-05-02T21:52:15.668Z,8.63
2018-05-02T21:54:46.789Z,8.50
2018-05-02T21:57:13.245Z,9.33
2018-05-02T21:59:39.721Z,9.07
2018-05-02T22:02:06.753Z,9.83
2018-05-02T22:04:33.040Z,9.73
2018-05-02T22:06:59.452Z,9.17
2018-05-02T22:09:25.901Z,10.00
2018-05-02T22:11:52.233Z,9.10
2018-05-02T22:14:18.620Z,10.80
2018-05-02T22:16:44.946Z,10.60
2018-05-02T22:19:12.055Z,10.10
2018-05-02T22:21:47.299Z,11.57
2018-05-02T22:24:13.669Z,10.13
2018-05-02T22:26:40.017Z,11.47
2018-05-02T22:29:06.376Z,12.37
2018-05-02T22:31:32.718Z,11.83
2018-05-02T22:33:59.165Z,13.50
2018-05-02T22:36:25.497Z,13.10
2018-05-02T22:38:51.879Z,12.63
2018-05-02T22:41:19.007Z,13.07
2018-05-02T22:43:50.636Z,13.77
2018-05-02T22:46:16.932Z,13.40
2018-05-02T22:48:51.476Z,15.83
2018-05-02T22:51:18.585Z,15.60
2018-05-02T22:53:46.807Z,13.73
2018-05-02T22:56:13.985Z,13.73
2018-05-02T22:58:41.011Z,14.53
2018-05-02T23:01:07.381Z,17.07
2018-05-02T23:03:33.696Z,17.77
2018-05-02T23:06:00.036Z,15.23
2018-05-02T23:08:26.446Z,15.17
2018-05-02T23:10:52.809Z,14.43
2018-05-02T23:13:20.329Z,13.40
2018-05-02T23:15:47.499Z,13.60
2018-05-02T23:18:14.579Z,12.33
2018-05-02T23:20:40.940Z,15.50
2018-05-02T23:23:07.351Z,15.00
2018-05-02T23:25:34.349Z,17.40
2018-05-02T23:28:00.685Z,14.00
2018-05-02T23:30:27.127Z,15.53
2018-05-02T23:33:00.142Z,14.17
2018-05-02T23:35:26.442Z,13.77
2018-05-02T23:37:53.550Z,14.43
2018-05-02T23:40:19.885Z,14.67
2018-05-02T23:42:46.403Z,13.40
2018-05-02T23:45:13.499Z,13.13
2018-05-02T23:47:39.816Z,14.30
2018-05-02T23:50:06.154Z,12.33
2018-05-02T23:52:32.517Z,16.27
2018-05-02T23:54:58.837Z,15.60
2018-05-02T23:57:25.196Z,13.13
2018-05-02T23:59:51.605Z,17.30
